sensor_id;sensor_type;location;lat;lon;timestamp;pressure;altitude;pressure_sealevel;temperature;humidity
70488;BME280;57976;48.174;16.370;2023-05-03T00:00:13;99827.15;;;12.77;100.00
70488;BME280;57976;48.174;16.370;2023-05-03T00:02:18;99826.83;;;12.77;100.00
70488;BME280;57976;48.174;16.370;2023-05-03T00:04:22;99822.63;;;12.76;100.00
70488;BME280;57976;48.174;16.370;2023-05-03T00:06:27;99823.53;;;12.76;100.00
70488;BME280;57976;48.174;16.370;2023-05-03T00:08:32;99827.36;;;12.75;100.00
70488;BME280;57976;48.174;16.370;2023-05-03T00:10:36;99826.54;;;12.76;100.00
70488;BME280;57976;48.174;16.370;2023-05-03T00:12:42;99825.52;;;12.77;100.00
70488;BME280;57976;48.174;16.370;2023-05-03T00:14:47;99824.77;;;12.76;100.00
70488;BME280;57976;48.174;16.370;2023-05-03T00:16:51;99831.55;;;12.77;100.00
70488;BME280;57976;48.174;16.370;2023-05-03T00:18:56;99828.76;;;12.77;100.00
70488;BME280;57976;48.174;16.370;2023-05-03T00:21:01;99832.63;;;12.77;100.00
70488;BME280;57976;48.174;16.370;2023-05-03T00:23:06;99831.92;;;12.77;100.00
70488;BME280;57976;48.174;16.370;2023-05-03T00:25:11;99825.51;;;12.76;100.00
70488;BME280;57976;48.174;16.370;2023-05-03T00:27:15;99828.30;;;12.76;100.00
70488;BME280;57976;48.174;16.370;2023-05-03T00:29:20;99823.95;;;12.76;100.00
70488;BME280;57976;48.174;16.370;2023-05-03T00:31:25;99821.56;;;12.76;100.00
70488;BME280;57976;48.174;16.370;2023-05-03T00:33:30;99827.11;;;12.77;100.00
70488;BME280;57976;48.174;16.370;2023-05-03T00:35:34;99827.24;;;12.79;100.00
70488;BME280;57976;48.174;16.370;2023-05-03T00:37:39;99824.20;;;12.79;100.00
70488;BME280;57976;48.174;16.370;2023-05-03T00:39:44;99826.88;;;12.79;100.00
70488;BME280;57976;48.174;16.370;2023-05-03T00:41:48;99826.35;;;12.79;100.00
70488;BME280;57976;48.174;16.370;2023-05-03T00:43:53;99821.40;;;12.78;100.00
70488;BME280;57976;48.174;16.370;2023-05-03T00:45:58;99822.85;;;12.79;100.00
70488;BME280;57976;48.174;16.370;2023-05-03T00:48:19;99819.67;;;12.78;100.00
70488;BME280;57976;48.174;16.370;2023-05-03T00:50:23;99817.79;;;12.79;100.00
70488;BME280;57976;48.174;16.370;2023-05-03T00:52:28;99818.70;;;12.80;100.00
70488;BME280;57976;48.174;16.370;2023-05-03T00:54:33;99813.34;;;12.81;100.00
70488;BME280;57976;48.174;16.370;2023-05-03T00:56:39;99813.65;;;12.82;100.00
70488;BME280;57976;48.174;16.370;2023-05-03T00:58:55;99812.45;;;12.83;100.00
70488;BME280;57976;48.174;16.370;2023-05-03T01:01:00;99815.13;;;12.84;100.00
70488;BME280;57976;48.174;16.370;2023-05-03T01:03:05;99817.95;;;12.84;100.00
70488;BME280;57976;48.174;16.370;2023-05-03T01:05:10;99815.38;;;12.85;100.00
70488;BME280;57976;48.174;16.370;2023-05-03T01:07:22;99815.88;;;12.85;100.00
70488;BME280;57976;48.174;16.370;2023-05-03T01:09:36;99815.29;;;12.84;100.00
70488;BME280;57976;48.174;16.370;2023-05-03T01:11:52;99814.02;;;12.84;100.00
70488;BME280;57976;48.174;16.370;2023-05-03T01:14:04;99814.96;;;12.84;100.00
70488;BME280;57976;48.174;16.370;2023-05-03T01:16:15;99812.98;;;12.85;100.00
70488;BME280;57976;48.174;16.370;2023-05-03T01:18:25;99814.02;;;12.86;100.00
70488;BME280;57976;48.174;16.370;2023-05-03T01:20:34;99816.40;;;12.85;100.00
70488;BME280;57976;48.174;16.370;2023-05-03T01:22:45;99817.10;;;12.87;100.00
70488;BME280;57976;48.174;16.370;2023-05-03T01:24:58;99820.64;;;12.88;100.00
70488;BME280;57976;48.174;16.370;2023-05-03T01:27:03;99819.95;;;12.89;100.00
70488;BME280;57976;48.174;16.370;2023-05-03T01:29:08;99813.80;;;12.89;100.00
70488;BME280;57976;48.174;16.370;2023-05-03T01:31:17;99817.64;;;12.89;100.00
70488;BME280;57976;48.174;16.370;2023-05-03T01:33:28;99819.01;;;12.90;100.00
70488;BME280;57976;48.174;16.370;2023-05-03T01:35:39;99815.66;;;12.91;99.96
70488;BME280;57976;48.174;16.370;2023-05-03T01:37:44;99819.25;;;12.90;99.89
70488;BME280;57976;48.174;16.370;2023-05-03T01:39:52;99814.68;;;12.90;99.89
70488;BME280;57976;48.174;16.370;2023-05-03T01:41:59;99814.40;;;12.91;99.97
70488;BME280;57976;48.174;16.370;2023-05-03T01:44:07;99812.46;;;12.91;99.92
70488;BME280;57976;48.174;16.370;2023-05-03T01:46:12;99809.95;;;12.91;100.00
70488;BME280;57976;48.174;16.370;2023-05-03T01:48:20;99815.13;;;12.92;99.90
70488;BME280;57976;48.174;16.370;2023-05-03T01:50:24;99810.77;;;12.92;99.80
70488;BME280;57976;48.174;16.370;2023-05-03T01:52:29;99811.22;;;12.93;99.93
70488;BME280;57976;48.174;16.370;2023-05-03T01:54:34;99807.19;;;12.94;99.95
70488;BME280;57976;48.174;16.370;2023-05-03T01:56:39;99810.74;;;12.96;99.68
70488;BME280;57976;48.174;16.370;2023-05-03T01:58:43;99810.45;;;12.95;99.52
70488;BME280;57976;48.174;16.370;2023-05-03T02:00:49;99810.11;;;12.95;99.38
70488;BME280;57976;48.174;16.370;2023-05-03T02:02:53;99808.60;;;12.94;99.23
70488;BME280;57976;48.174;16.370;2023-05-03T02:04:58;99811.80;;;12.94;99.13
70488;BME280;57976;48.174;16.370;2023-05-03T02:07:03;99816.53;;;12.95;99.01
70488;BME280;57976;48.174;16.370;2023-05-03T02:09:07;99818.75;;;12.94;99.04
70488;BME280;57976;48.174;16.370;2023-05-03T02:11:12;99821.27;;;12.95;98.87
70488;BME280;57976;48.174;16.370;2023-05-03T02:13:17;99819.98;;;12.96;98.61
70488;BME280;57976;48.174;16.370;2023-05-03T02:15:22;99820.31;;;12.96;98.49
70488;BME280;57976;48.174;16.370;2023-05-03T02:17:27;99819.01;;;12.95;98.57
70488;BME280;57976;48.174;16.370;2023-05-03T02:19:31;99816.16;;;12.95;98.35
70488;BME280;57976;48.174;16.370;2023-05-03T02:21:37;99817.06;;;12.95;98.27
70488;BME280;57976;48.174;16.370;2023-05-03T02:23:42;99816.16;;;12.95;98.31
70488;BME280;57976;48.174;16.370;2023-05-03T02:25:46;99817.15;;;12.94;98.40
70488;BME280;57976;48.174;16.370;2023-05-03T02:27:51;99819.14;;;12.93;98.18
70488;BME280;57976;48.174;16.370;2023-05-03T02:29:59;99822.41;;;12.92;98.07
70488;BME280;57976;48.174;16.370;2023-05-03T02:32:05;99818.96;;;12.90;98.04
70488;BME280;57976;48.174;16.370;2023-05-03T02:34:10;99820.48;;;12.90;98.05
70488;BME280;57976;48.174;16.370;2023-05-03T02:36:15;99823.24;;;12.91;98.11
70488;BME280;57976;48.174;16.370;2023-05-03T02:38:20;99819.78;;;12.89;98.16
70488;BME280;57976;48.174;16.370;2023-05-03T02:40:25;99822.65;;;12.90;97.90
70488;BME280;57976;48.174;16.370;2023-05-03T02:42:30;99820.52;;;12.90;97.97
70488;BME280;57976;48.174;16.370;2023-05-03T02:44:35;99823.98;;;12.91;97.78
70488;BME280;57976;48.174;16.370;2023-05-03T02:46:40;99819.82;;;12.91;97.48
70488;BME280;57976;48.174;16.370;2023-05-03T02:48:45;99817.29;;;12.93;97.62
70488;BME280;57976;48.174;16.370;2023-05-03T02:50:50;99823.16;;;12.95;97.39
70488;BME280;57976;48.174;16.370;2023-05-03T02:52:55;99821.23;;;12.94;96.43
70488;BME280;57976;48.174;16.370;2023-05-03T02:54:59;99814.64;;;12.93;96.41
70488;BME280;57976;48.174;16.370;2023-05-03T02:57:04;99813.45;;;12.91;96.76
70488;BME280;57976;48.174;16.370;2023-05-03T02:59:09;99814.96;;;12.92;96.91
70488;BME280;57976;48.174;16.370;2023-05-03T03:01:13;99813.48;;;12.91;97.13
70488;BME280;57976;48.174;16.370;2023-05-03T03:03:18;99818.39;;;12.92;97.09
70488;BME280;57976;48.174;16.370;2023-05-03T03:05:23;99813.29;;;12.91;96.80
70488;BME280;57976;48.174;16.370;2023-05-03T03:07:28;99811.15;;;12.91;96.64
70488;BME280;57976;48.174;16.370;2023-05-03T03:09:33;99814.71;;;12.91;96.36
70488;BME280;57976;48.174;16.370;2023-05-03T03:11:38;99810.23;;;12.94;95.80
70488;BME280;57976;48.174;16.370;2023-05-03T03:13:44;99817.44;;;12.95;95.74
70488;BME280;57976;48.174;16.370;2023-05-03T03:15:49;99813.98;;;12.95;95.35
70488;BME280;57976;48.174;16.370;2023-05-03T03:17:54;99811.76;;;12.94;95.15
70488;BME280;57976;48.174;16.370;2023-05-03T03:19:59;99811.42;;;12.94;95.26
70488;BME280;57976;48.174;16.370;2023-05-03T03:22:05;99813.38;;;12.96;95.17
70488;BME280;57976;48.174;16.370;2023-05-03T03:24:10;99812.10;;;12.97;95.01
70488;BME280;57976;48.174;16.370;2023-05-03T03:26:16;99820.36;;;12.98;94.46
70488;BME280;57976;48.174;16.370;2023-05-03T03:28:20;99816.41;;;12.99;94.14
70488;BME280;57976;48.174;16.370;2023-05-03T03:30:26;99819.73;;;13.00;94.21
70488;BME280;57976;48.174;16.370;2023-05-03T03:32:36;99827.54;;;13.00;93.96
70488;BME280;57976;48.174;16.370;2023-05-03T03:34:41;99826.09;;;13.01;93.67
70488;BME280;57976;48.174;16.370;2023-05-03T03:36:45;99828.73;;;13.02;93.38
70488;BME280;57976;48.174;16.370;2023-05-03T03:38:50;99834.01;;;13.03;93.34
70488;BME280;57976;48.174;16.370;2023-05-03T03:40:55;99831.98;;;13.03;93.24
70488;BME280;57976;48.174;16.370;2023-05-03T03:43:00;99834.70;;;13.04;93.19
70488;BME280;57976;48.174;16.370;2023-05-03T03:45:06;99835.35;;;13.04;93.10
70488;BME280;57976;48.174;16.370;2023-05-03T03:47:11;99832.35;;;13.04;92.96
70488;BME280;57976;48.174;16.370;2023-05-03T03:49:16;99838.85;;;13.04;92.74
70488;BME280;57976;48.174;16.370;2023-05-03T03:51:21;99845.36;;;13.02;92.67
70488;BME280;57976;48.174;16.370;2023-05-03T03:53:25;99843.66;;;13.01;92.49
70488;BME280;57976;48.174;16.370;2023-05-03T03:55:30;99841.27;;;13.02;92.57
70488;BME280;57976;48.174;16.370;2023-05-03T03:57:35;99841.23;;;13.01;92.48
70488;BME280;57976;48.174;16.370;2023-05-03T03:59:40;99841.73;;;13.01;92.77
70488;BME280;57976;48.174;16.370;2023-05-03T04:01:45;99845.18;;;13.03;92.80
70488;BME280;57976;48.174;16.370;2023-05-03T04:03:49;99847.19;;;13.04;92.67
70488;BME280;57976;48.174;16.370;2023-05-03T04:05:54;99845.58;;;13.06;92.91
70488;BME280;57976;48.174;16.370;2023-05-03T04:07:59;99847.08;;;13.07;92.77
70488;BME280;57976;48.174;16.370;2023-05-03T04:10:07;99849.75;;;13.08;92.95
70488;BME280;57976;48.174;16.370;2023-05-03T04:12:12;99847.45;;;13.06;93.39
70488;BME280;57976;48.174;16.370;2023-05-03T04:14:17;99848.42;;;13.06;93.99
70488;BME280;57976;48.174;16.370;2023-05-03T04:16:22;99848.11;;;13.04;94.07
70488;BME280;57976;48.174;16.370;2023-05-03T04:18:28;99852.85;;;13.05;94.22
70488;BME280;57976;48.174;16.370;2023-05-03T04:20:33;99859.98;;;13.05;94.39
70488;BME280;57976;48.174;16.370;2023-05-03T04:22:38;99862.59;;;13.05;94.35
70488;BME280;57976;48.174;16.370;2023-05-03T04:24:43;99862.42;;;13.06;94.31
70488;BME280;57976;48.174;16.370;2023-05-03T04:26:48;99862.05;;;13.06;94.33
70488;BME280;57976;48.174;16.370;2023-05-03T04:28:57;99875.39;;;13.09;94.38
70488;BME280;57976;48.174;16.370;2023-05-03T04:31:02;99872.46;;;13.10;94.32
70488;BME280;57976;48.174;16.370;2023-05-03T04:33:07;99879.60;;;13.11;94.52
70488;BME280;57976;48.174;16.370;2023-05-03T04:35:12;99878.48;;;13.12;94.90
70488;BME280;57976;48.174;16.370;2023-05-03T04:37:20;99879.64;;;13.12;94.48
70488;BME280;57976;48.174;16.370;2023-05-03T04:39:25;99881.54;;;13.14;94.55
70488;BME280;57976;48.174;16.370;2023-05-03T04:41:30;99884.79;;;13.15;94.63
70488;BME280;57976;48.174;16.370;2023-05-03T04:43:35;99881.52;;;13.17;94.38
70488;BME280;57976;48.174;16.370;2023-05-03T04:45:40;99885.98;;;13.19;94.10
70488;BME280;57976;48.174;16.370;2023-05-03T04:47:48;99891.83;;;13.22;94.07
70488;BME280;57976;48.174;16.370;2023-05-03T04:49:53;99896.73;;;13.24;93.86
70488;BME280;57976;48.174;16.370;2023-05-03T04:51:58;99901.80;;;13.25;93.35
70488;BME280;57976;48.174;16.370;2023-05-03T04:54:04;99907.94;;;13.27;92.84
70488;BME280;57976;48.174;16.370;2023-05-03T04:56:09;99899.99;;;13.29;92.49
70488;BME280;57976;48.174;16.370;2023-05-03T04:58:15;99903.36;;;13.32;92.18
70488;BME280;57976;48.174;16.370;2023-05-03T05:00:21;99904.52;;;13.34;92.37
70488;BME280;57976;48.174;16.370;2023-05-03T05:02:30;99909.59;;;13.40;92.26
70488;BME280;57976;48.174;16.370;2023-05-03T05:04:35;99913.18;;;13.45;91.59
70488;BME280;57976;48.174;16.370;2023-05-03T05:06:41;99911.09;;;13.49;90.65
70488;BME280;57976;48.174;16.370;2023-05-03T05:08:49;99914.84;;;13.54;90.12
70488;BME280;57976;48.174;16.370;2023-05-03T05:10:54;99910.19;;;13.58;89.78
70488;BME280;57976;48.174;16.370;2023-05-03T05:13:02;99920.44;;;13.64;89.00
70488;BME280;57976;48.174;16.370;2023-05-03T05:15:08;99917.11;;;13.69;88.65
70488;BME280;57976;48.174;16.370;2023-05-03T05:17:13;99920.16;;;13.74;88.12
70488;BME280;57976;48.174;16.370;2023-05-03T05:19:18;99919.52;;;13.77;87.02
70488;BME280;57976;48.174;16.370;2023-05-03T05:21:23;99915.91;;;13.80;87.57
70488;BME280;57976;48.174;16.370;2023-05-03T05:23:27;99922.91;;;13.84;86.78
70488;BME280;57976;48.174;16.370;2023-05-03T05:25:33;99921.99;;;13.84;86.03
70488;BME280;57976;48.174;16.370;2023-05-03T05:27:38;99923.61;;;13.83;85.89
70488;BME280;57976;48.174;16.370;2023-05-03T05:29:42;99919.69;;;13.81;86.41
70488;BME280;57976;48.174;16.370;2023-05-03T05:31:47;99924.15;;;13.81;86.25
70488;BME280;57976;48.174;16.370;2023-05-03T05:33:52;99926.99;;;13.81;86.53
70488;BME280;57976;48.174;16.370;2023-05-03T05:35:57;99925.23;;;13.81;86.47
70488;BME280;57976;48.174;16.370;2023-05-03T05:38:02;99926.17;;;13.81;86.36
70488;BME280;57976;48.174;16.370;2023-05-03T05:40:09;99926.25;;;13.82;86.34
70488;BME280;57976;48.174;16.370;2023-05-03T05:42:18;99940.30;;;13.83;85.55
70488;BME280;57976;48.174;16.370;2023-05-03T05:44:23;99940.17;;;13.84;85.14
70488;BME280;57976;48.174;16.370;2023-05-03T05:46:28;99939.02;;;13.85;85.41
70488;BME280;57976;48.174;16.370;2023-05-03T05:48:32;99941.13;;;13.85;85.66
70488;BME280;57976;48.174;16.370;2023-05-03T05:50:37;99942.44;;;13.88;85.64
70488;BME280;57976;48.174;16.370;2023-05-03T05:52:45;99946.80;;;13.90;85.60
70488;BME280;57976;48.174;16.370;2023-05-03T05:54:50;99950.35;;;13.93;84.68
70488;BME280;57976;48.174;16.370;2023-05-03T05:56:56;99952.98;;;13.92;83.97
70488;BME280;57976;48.174;16.370;2023-05-03T05:59:01;99953.61;;;13.93;83.86
70488;BME280;57976;48.174;16.370;2023-05-03T06:01:07;99963.73;;;13.94;83.53
70488;BME280;57976;48.174;16.370;2023-05-03T06:03:12;99962.45;;;13.98;83.17
70488;BME280;57976;48.174;16.370;2023-05-03T06:05:17;99970.66;;;14.01;82.51
70488;BME280;57976;48.174;16.370;2023-05-03T06:07:25;99964.17;;;14.04;82.85
70488;BME280;57976;48.174;16.370;2023-05-03T06:09:31;99961.77;;;14.08;82.80
70488;BME280;57976;48.174;16.370;2023-05-03T06:11:39;99965.73;;;14.10;82.00
70488;BME280;57976;48.174;16.370;2023-05-03T06:13:44;99954.41;;;14.14;82.49
70488;BME280;57976;48.174;16.370;2023-05-03T06:15:51;99957.05;;;14.16;81.46
70488;BME280;57976;48.174;16.370;2023-05-03T06:17:56;99962.31;;;14.18;81.74
70488;BME280;57976;48.174;16.370;2023-05-03T06:20:00;99963.63;;;14.23;81.09
70488;BME280;57976;48.174;16.370;2023-05-03T06:22:06;99965.94;;;14.27;80.78
70488;BME280;57976;48.174;16.370;2023-05-03T06:24:11;99964.83;;;14.29;80.62
70488;BME280;57976;48.174;16.370;2023-05-03T06:26:16;99967.61;;;14.31;80.37
70488;BME280;57976;48.174;16.370;2023-05-03T06:28:22;99977.98;;;14.34;80.22
70488;BME280;57976;48.174;16.370;2023-05-03T06:30:29;99968.80;;;14.35;79.84
70488;BME280;57976;48.174;16.370;2023-05-03T06:32:41;99966.90;;;14.36;80.48
70488;BME280;57976;48.174;16.370;2023-05-03T06:34:46;99962.77;;;14.37;80.27
70488;BME280;57976;48.174;16.370;2023-05-03T06:36:52;99966.11;;;14.37;80.20
70488;BME280;57976;48.174;16.370;2023-05-03T06:38:56;99971.09;;;14.39;80.58
70488;BME280;57976;48.174;16.370;2023-05-03T06:41:01;99978.05;;;14.43;80.27
70488;BME280;57976;48.174;16.370;2023-05-03T06:43:07;99972.90;;;14.44;80.37
70488;BME280;57976;48.174;16.370;2023-05-03T06:45:15;99977.36;;;14.44;80.50
70488;BME280;57976;48.174;16.370;2023-05-03T06:47:19;99971.20;;;14.46;81.04
70488;BME280;57976;48.174;16.370;2023-05-03T06:49:24;99983.19;;;14.55;80.54
70488;BME280;57976;48.174;16.370;2023-05-03T06:51:29;99973.08;;;14.59;80.19
70488;BME280;57976;48.174;16.370;2023-05-03T06:53:34;99974.00;;;14.63;80.19
70488;BME280;57976;48.174;16.370;2023-05-03T06:55:39;99979.02;;;14.67;79.83
70488;BME280;57976;48.174;16.370;2023-05-03T06:57:46;99977.17;;;14.68;79.20
70488;BME280;57976;48.174;16.370;2023-05-03T06:59:51;99977.30;;;14.69;78.95
70488;BME280;57976;48.174;16.370;2023-05-03T07:01:56;99979.73;;;14.69;78.90
70488;BME280;57976;48.174;16.370;2023-05-03T07:04:01;99977.33;;;14.68;78.99
70488;BME280;57976;48.174;16.370;2023-05-03T07:06:06;99976.22;;;14.70;79.23
70488;BME280;57976;48.174;16.370;2023-05-03T07:08:11;99980.77;;;14.76;78.95
70488;BME280;57976;48.174;16.370;2023-05-03T07:10:16;99980.34;;;14.82;78.64
70488;BME280;57976;48.174;16.370;2023-05-03T07:12:27;99973.07;;;14.85;78.76
70488;BME280;57976;48.174;16.370;2023-05-03T07:14:31;99978.91;;;14.88;78.27
70488;BME280;57976;48.174;16.370;2023-05-03T07:16:36;99980.27;;;14.88;77.80
70488;BME280;57976;48.174;16.370;2023-05-03T07:18:41;99973.30;;;14.87;77.98
70488;BME280;57976;48.174;16.370;2023-05-03T07:20:46;99976.30;;;14.89;78.50
70488;BME280;57976;48.174;16.370;2023-05-03T07:22:51;99985.87;;;14.92;78.02
70488;BME280;57976;48.174;16.370;2023-05-03T07:24:56;99976.08;;;14.93;77.80
70488;BME280;57976;48.174;16.370;2023-05-03T07:27:01;99973.15;;;14.95;77.91
70488;BME280;57976;48.174;16.370;2023-05-03T07:29:06;99973.01;;;14.98;78.03
70488;BME280;57976;48.174;16.370;2023-05-03T07:31:11;99972.50;;;15.02;77.57
70488;BME280;57976;48.174;16.370;2023-05-03T07:33:16;99974.54;;;15.06;77.26
70488;BME280;57976;48.174;16.370;2023-05-03T07:35:21;99976.31;;;15.06;76.70
70488;BME280;57976;48.174;16.370;2023-05-03T07:37:25;99975.81;;;15.08;76.37
70488;BME280;57976;48.174;16.370;2023-05-03T07:39:31;99976.91;;;15.12;76.56
70488;BME280;57976;48.174;16.370;2023-05-03T07:41:35;99975.34;;;15.19;76.63
70488;BME280;57976;48.174;16.370;2023-05-03T07:43:40;99981.74;;;15.26;76.18
70488;BME280;57976;48.174;16.370;2023-05-03T07:45:45;99983.75;;;15.29;75.17
70488;BME280;57976;48.174;16.370;2023-05-03T07:47:50;99986.88;;;15.31;75.07
70488;BME280;57976;48.174;16.370;2023-05-03T07:49:55;99983.87;;;15.30;75.16
70488;BME280;57976;48.174;16.370;2023-05-03T07:52:00;99981.54;;;15.27;75.09
70488;BME280;57976;48.174;16.370;2023-05-03T07:54:05;99987.06;;;15.30;75.33
70488;BME280;57976;48.174;16.370;2023-05-03T07:56:09;99980.88;;;15.35;74.88
70488;BME280;57976;48.174;16.370;2023-05-03T07:58:14;99986.81;;;15.34;74.60
70488;BME280;57976;48.174;16.370;2023-05-03T08:00:19;99987.70;;;15.34;74.19
70488;BME280;57976;48.174;16.370;2023-05-03T08:02:24;99986.95;;;15.35;73.94
70488;BME280;57976;48.174;16.370;2023-05-03T08:04:29;99984.61;;;15.37;74.25
70488;BME280;57976;48.174;16.370;2023-05-03T08:06:34;99984.85;;;15.42;74.14
70488;BME280;57976;48.174;16.370;2023-05-03T08:08:39;99981.36;;;15.47;74.44
70488;BME280;57976;48.174;16.370;2023-05-03T08:10:44;99989.89;;;15.57;74.22
70488;BME280;57976;48.174;16.370;2023-05-03T08:12:49;99990.42;;;15.65;73.34
70488;BME280;57976;48.174;16.370;2023-05-03T08:14:54;99985.23;;;15.62;73.18
70488;BME280;57976;48.174;16.370;2023-05-03T08:16:59;99991.41;;;15.61;73.41
70488;BME280;57976;48.174;16.370;2023-05-03T08:19:04;99986.11;;;15.54;72.95
70488;BME280;57976;48.174;16.370;2023-05-03T08:21:08;99990.45;;;15.47;72.83
70488;BME280;57976;48.174;16.370;2023-05-03T08:23:13;99991.63;;;15.42;72.67
70488;BME280;57976;48.174;16.370;2023-05-03T08:25:21;99989.68;;;15.44;73.40
70488;BME280;57976;48.174;16.370;2023-05-03T08:27:26;99988.75;;;15.55;72.77
70488;BME280;57976;48.174;16.370;2023-05-03T08:29:30;99991.57;;;15.60;71.81
70488;BME280;57976;48.174;16.370;2023-05-03T08:31:35;99994.67;;;15.60;71.16
70488;BME280;57976;48.174;16.370;2023-05-03T08:33:40;99994.69;;;15.62;70.69
70488;BME280;57976;48.174;16.370;2023-05-03T08:35:45;99999.20;;;15.64;70.09
70488;BME280;57976;48.174;16.370;2023-05-03T08:37:52;100002.04;;;15.65;69.59
70488;BME280;57976;48.174;16.370;2023-05-03T08:39:59;99995.56;;;15.69;70.48
70488;BME280;57976;48.174;16.370;2023-05-03T08:42:08;99995.55;;;15.76;70.32
70488;BME280;57976;48.174;16.370;2023-05-03T08:44:18;99997.23;;;15.83;69.81
70488;BME280;57976;48.174;16.370;2023-05-03T08:46:25;100000.36;;;15.89;68.19
70488;BME280;57976;48.174;16.370;2023-05-03T08:48:31;99997.36;;;15.94;68.27
70488;BME280;57976;48.174;16.370;2023-05-03T08:50:40;99988.70;;;16.01;69.11
70488;BME280;57976;48.174;16.370;2023-05-03T08:52:45;99991.54;;;16.06;69.00
70488;BME280;57976;48.174;16.370;2023-05-03T08:54:49;99987.50;;;16.14;68.93
70488;BME280;57976;48.174;16.370;2023-05-03T08:56:54;99997.16;;;16.27;67.14
70488;BME280;57976;48.174;16.370;2023-05-03T08:58:59;99994.11;;;16.39;66.89
70488;BME280;57976;48.174;16.370;2023-05-03T09:01:07;99990.91;;;16.44;66.62
70488;BME280;57976;48.174;16.370;2023-05-03T09:03:12;99996.42;;;16.46;66.60
70488;BME280;57976;48.174;16.370;2023-05-03T09:05:34;99998.20;;;16.53;66.56
70488;BME280;57976;48.174;16.370;2023-05-03T09:07:39;99991.60;;;16.63;66.47
70488;BME280;57976;48.174;16.370;2023-05-03T09:09:44;100002.86;;;16.71;64.83
70488;BME280;57976;48.174;16.370;2023-05-03T09:11:50;100002.48;;;16.66;64.89
70488;BME280;57976;48.174;16.370;2023-05-03T09:14:08;100001.48;;;16.61;64.63
70488;BME280;57976;48.174;16.370;2023-05-03T09:16:22;99997.59;;;16.61;65.40
70488;BME280;57976;48.174;16.370;2023-05-03T09:18:28;99996.16;;;16.65;65.12
70488;BME280;57976;48.174;16.370;2023-05-03T09:20:36;99987.41;;;16.72;65.14
70488;BME280;57976;48.174;16.370;2023-05-03T09:22:50;99998.73;;;16.77;64.71
70488;BME280;57976;48.174;16.370;2023-05-03T09:24:56;99994.91;;;16.82;63.74
70488;BME280;57976;48.174;16.370;2023-05-03T09:27:02;99988.02;;;16.84;63.84
70488;BME280;57976;48.174;16.370;2023-05-03T09:29:31;99985.61;;;16.84;63.76
70488;BME280;57976;48.174;16.370;2023-05-03T09:31:37;99982.67;;;16.87;63.86
70488;BME280;57976;48.174;16.370;2023-05-03T09:34:01;99980.94;;;16.93;63.24
70488;BME280;57976;48.174;16.370;2023-05-03T09:36:07;99988.29;;;16.95;62.06
70488;BME280;57976;48.174;16.370;2023-05-03T09:38:26;99991.20;;;16.98;61.46
70488;BME280;57976;48.174;16.370;2023-05-03T09:40:31;99976.91;;;17.01;61.28
70488;BME280;57976;48.174;16.370;2023-05-03T09:42:35;99977.61;;;17.08;61.36
70488;BME280;57976;48.174;16.370;2023-05-03T09:44:47;99982.05;;;17.15;61.05
70488;BME280;57976;48.174;16.370;2023-05-03T09:47:05;99988.71;;;17.18;60.41
70488;BME280;57976;48.174;16.370;2023-05-03T09:49:10;99979.35;;;17.15;60.69
70488;BME280;57976;48.174;16.370;2023-05-03T09:51:16;99975.89;;;17.10;60.72
70488;BME280;57976;48.174;16.370;2023-05-03T09:53:21;99971.80;;;17.09;60.67
70488;BME280;57976;48.174;16.370;2023-05-03T09:55:27;99971.68;;;17.08;60.45
70488;BME280;57976;48.174;16.370;2023-05-03T09:57:33;99974.34;;;17.09;60.11
70488;BME280;57976;48.174;16.370;2023-05-03T09:59:39;99976.75;;;17.11;59.72
70488;BME280;57976;48.174;16.370;2023-05-03T10:01:43;99966.27;;;17.11;59.83
70488;BME280;57976;48.174;16.370;2023-05-03T10:03:50;99962.67;;;17.07;60.02
70488;BME280;57976;48.174;16.370;2023-05-03T10:05:55;99959.95;;;17.06;60.75
70488;BME280;57976;48.174;16.370;2023-05-03T10:08:01;99961.48;;;17.08;60.10
70488;BME280;57976;48.174;16.370;2023-05-03T10:10:08;99958.77;;;17.13;60.54
70488;BME280;57976;48.174;16.370;2023-05-03T10:12:14;99949.39;;;17.23;60.62
70488;BME280;57976;48.174;16.370;2023-05-03T10:14:19;99948.78;;;17.26;60.38
70488;BME280;57976;48.174;16.370;2023-05-03T10:16:28;99942.45;;;17.26;59.95
70488;BME280;57976;48.174;16.370;2023-05-03T10:18:38;99940.12;;;17.23;59.59
70488;BME280;57976;48.174;16.370;2023-05-03T10:20:49;99939.50;;;17.23;59.78
70488;BME280;57976;48.174;16.370;2023-05-03T10:23:12;99948.34;;;17.25;59.63
70488;BME280;57976;48.174;16.370;2023-05-03T10:25:17;99946.34;;;17.25;59.50
70488;BME280;57976;48.174;16.370;2023-05-03T10:27:22;99941.48;;;17.26;59.54
70488;BME280;57976;48.174;16.370;2023-05-03T10:29:45;99938.98;;;17.33;59.29
70488;BME280;57976;48.174;16.370;2023-05-03T10:31:50;99939.04;;;17.50;59.07
70488;BME280;57976;48.174;16.370;2023-05-03T10:33:55;99941.85;;;17.62;57.77
70488;BME280;57976;48.174;16.370;2023-05-03T10:36:03;99930.17;;;17.64;58.02
70488;BME280;57976;48.174;16.370;2023-05-03T10:38:15;99921.34;;;17.64;58.33
70488;BME280;57976;48.174;16.370;2023-05-03T10:40:20;99926.75;;;17.68;57.72
70488;BME280;57976;48.174;16.370;2023-05-03T10:42:25;99925.50;;;17.68;56.62
70488;BME280;57976;48.174;16.370;2023-05-03T10:44:37;99930.00;;;17.69;56.41
70488;BME280;57976;48.174;16.370;2023-05-03T10:46:44;99935.89;;;17.69;55.95
70488;BME280;57976;48.174;16.370;2023-05-03T10:49:16;99938.74;;;17.67;55.97
70488;BME280;57976;48.174;16.370;2023-05-03T10:51:38;99937.66;;;17.64;56.45
70488;BME280;57976;48.174;16.370;2023-05-03T10:53:43;99931.22;;;17.68;56.52
70488;BME280;57976;48.174;16.370;2023-05-03T10:56:02;99937.74;;;17.70;56.20
70488;BME280;57976;48.174;16.370;2023-05-03T10:58:12;99936.08;;;17.68;55.89